sensor_id;sensor_type;location;lat;lon;timestamp;temperature;humidity
60293;DHT22;52402;52.670;6.750;2023-01-28T00:02:03;2.20;99.90
60293;DHT22;52402;52.670;6.750;2023-01-28T00:04:28;2.20;99.90
60293;DHT22;52402;52.670;6.750;2023-01-28T00:06:54;2.20;99.90
60293;DHT22;52402;52.670;6.750;2023-01-28T00:09:20;2.20;99.90
60293;DHT22;52402;52.670;6.750;2023-01-28T00:11:45;2.20;99.90
60293;DHT22;52402;52.670;6.750;2023-01-28T00:14:11;2.20;99.90
60293;DHT22;52402;52.670;6.750;2023-01-28T00:16:37;2.20;99.90
60293;DHT22;52402;52.670;6.750;2023-01-28T00:19:03;2.20;99.90
60293;DHT22;52402;52.670;6.750;2023-01-28T00:21:28;2.20;99.90
60293;DHT22;52402;52.670;6.750;2023-01-28T00:23:55;2.20;99.90
60293;DHT22;52402;52.670;6.750;2023-01-28T00:26:22;2.20;99.90
60293;DHT22;52402;52.670;6.750;2023-01-28T00:28:49;2.20;99.90
60293;DHT22;52402;52.670;6.750;2023-01-28T00:31:21;2.20;99.90
60293;DHT22;52402;52.670;6.750;2023-01-28T00:33:47;2.20;99.90
60293;DHT22;52402;52.670;6.750;2023-01-28T00:36:14;2.20;99.90
60293;DHT22;52402;52.670;6.750;2023-01-28T00:38:40;2.20;99.90
60293;DHT22;52402;52.670;6.750;2023-01-28T00:41:14;2.20;99.90
60293;DHT22;52402;52.670;6.750;2023-01-28T00:43:41;2.20;99.90
60293;DHT22;52402;52.670;6.750;2023-01-28T00:46:08;2.20;99.90
60293;DHT22;52402;52.670;6.750;2023-01-28T00:48:35;2.20;99.90
60293;DHT22;52402;52.670;6.750;2023-01-28T00:51:01;2.20;99.90
60293;DHT22;52402;52.670;6.750;2023-01-28T00:53:28;2.20;99.90
60293;DHT22;52402;52.670;6.750;2023-01-28T00:55:53;2.20;99.90
60293;DHT22;52402;52.670;6.750;2023-01-28T00:58:19;2.20;99.90
60293;DHT22;52402;52.670;6.750;2023-01-28T01:00:45;2.20;99.90
60293;DHT22;52402;52.670;6.750;2023-01-28T01:03:11;2.20;99.90
60293;DHT22;52402;52.670;6.750;2023-01-28T01:05:37;2.20;99.90
60293;DHT22;52402;52.670;6.750;2023-01-28T01:08:03;2.20;99.90
60293;DHT22;52402;52.670;6.750;2023-01-28T01:10:29;2.10;99.90
60293;DHT22;52402;52.670;6.750;2023-01-28T01:12:54;2.10;99.90
60293;DHT22;52402;52.670;6.750;2023-01-28T01:15:23;2.20;99.90
60293;DHT22;52402;52.670;6.750;2023-01-28T01:17:49;2.10;99.90
60293;DHT22;52402;52.670;6.750;2023-01-28T01:20:24;2.10;99.90
60293;DHT22;52402;52.670;6.750;2023-01-28T01:22:51;2.20;99.90
60293;DHT22;52402;52.670;6.750;2023-01-28T01:25:17;2.10;99.90
60293;DHT22;52402;52.670;6.750;2023-01-28T01:27:43;2.20;99.90
60293;DHT22;52402;52.670;6.750;2023-01-28T01:30:11;2.10;99.90
60293;DHT22;52402;52.670;6.750;2023-01-28T01:32:37;2.10;99.90
60293;DHT22;52402;52.670;6.750;2023-01-28T01:35:04;2.10;99.90
60293;DHT22;52402;52.670;6.750;2023-01-28T01:37:32;2.10;99.90
60293;DHT22;52402;52.670;6.750;2023-01-28T01:39:58;2.10;99.90
60293;DHT22;52402;52.670;6.750;2023-01-28T01:42:26;2.10;99.90
60293;DHT22;52402;52.670;6.750;2023-01-28T01:45:12;2.10;99.90
60293;DHT22;52402;52.670;6.750;2023-01-28T01:50:35;2.10;99.90
60293;DHT22;52402;52.670;6.750;2023-01-28T01:53:10;2.10;99.90
60293;DHT22;52402;52.670;6.750;2023-01-28T01:55:42;2.10;99.90
60293;DHT22;52402;52.670;6.750;2023-01-28T01:58:13;2.10;99.90
60293;DHT22;52402;52.670;6.750;2023-01-28T02:00:40;2.00;99.90
60293;DHT22;52402;52.670;6.750;2023-01-28T02:03:06;2.00;99.90
60293;DHT22;52402;52.670;6.750;2023-01-28T02:05:33;2.00;99.90
60293;DHT22;52402;52.670;6.750;2023-01-28T02:07:59;2.00;99.90
60293;DHT22;52402;52.670;6.750;2023-01-28T02:10:46;2.00;99.90
60293;DHT22;52402;52.670;6.750;2023-01-28T02:13:14;1.90;99.90
60293;DHT22;52402;52.670;6.750;2023-01-28T02:15:41;1.90;99.90
60293;DHT22;52402;52.670;6.750;2023-01-28T02:18:08;1.90;99.90
60293;DHT22;52402;52.670;6.750;2023-01-28T02:21:00;1.90;99.90
60293;DHT22;52402;52.670;6.750;2023-01-28T02:32:08;1.80;99.90
60293;DHT22;52402;52.670;6.750;2023-01-28T02:35:00;1.80;99.90
60293;DHT22;52402;52.670;6.750;2023-01-28T02:37:43;1.80;99.90
60293;DHT22;52402;52.670;6.750;2023-01-28T02:40:15;1.80;99.90
60293;DHT22;52402;52.670;6.750;2023-01-28T02:42:43;1.80;99.90
60293;DHT22;52402;52.670;6.750;2023-01-28T02:47:46;1.90;99.90
60293;DHT22;52402;52.670;6.750;2023-01-28T02:50:30;1.80;99.90
60293;DHT22;52402;52.670;6.750;2023-01-28T02:59:31;1.80;99.90
60293;DHT22;52402;52.670;6.750;2023-01-28T03:05:16;1.80;99.90
60293;DHT22;52402;52.670;6.750;2023-01-28T03:07:38;1.80;99.90
60293;DHT22;52402;52.670;6.750;2023-01-28T03:10:07;1.80;99.90
60293;DHT22;52402;52.670;6.750;2023-01-28T03:12:36;1.80;99.90
60293;DHT22;52402;52.670;6.750;2023-01-28T03:15:25;1.80;99.90
60293;DHT22;52402;52.670;6.750;2023-01-28T03:18:27;1.80;99.90
60293;DHT22;52402;52.670;6.750;2023-01-28T03:21:24;1.70;99.90
60293;DHT22;52402;52.670;6.750;2023-01-28T03:24:13;1.70;99.90
60293;DHT22;52402;52.670;6.750;2023-01-28T03:27:10;1.70;99.90
60293;DHT22;52402;52.670;6.750;2023-01-28T03:29:59;1.70;99.90
60293;DHT22;52402;52.670;6.750;2023-01-28T03:32:45;1.70;99.90
60293;DHT22;52402;52.670;6.750;2023-01-28T03:35:32;1.70;99.90
60293;DHT22;52402;52.670;6.750;2023-01-28T03:38:17;1.70;99.90
60293;DHT22;52402;52.670;6.750;2023-01-28T03:43:15;1.60;99.90
60293;DHT22;52402;52.670;6.750;2023-01-28T03:45:41;1.60;99.90
60293;DHT22;52402;52.670;6.750;2023-01-28T03:48:06;1.70;99.90
60293;DHT22;52402;52.670;6.750;2023-01-28T03:50:32;1.70;99.90
60293;DHT22;52402;52.670;6.750;2023-01-28T03:52:58;1.70;99.90
60293;DHT22;52402;52.670;6.750;2023-01-28T03:55:37;1.70;99.90
60293;DHT22;52402;52.670;6.750;2023-01-28T03:58:03;1.60;99.90
60293;DHT22;52402;52.670;6.750;2023-01-28T04:00:30;1.60;99.90
60293;DHT22;52402;52.670;6.750;2023-01-28T04:02:58;1.70;99.90
60293;DHT22;52402;52.670;6.750;2023-01-28T04:05:25;1.60;99.90
60293;DHT22;52402;52.670;6.750;2023-01-28T04:07:54;1.70;99.90
60293;DHT22;52402;52.670;6.750;2023-01-28T04:10:20;1.70;99.90
60293;DHT22;52402;52.670;6.750;2023-01-28T04:12:46;1.70;99.90
60293;DHT22;52402;52.670;6.750;2023-01-28T04:15:15;1.70;99.90
60293;DHT22;52402;52.670;6.750;2023-01-28T04:17:47;1.70;99.90
60293;DHT22;52402;52.670;6.750;2023-01-28T04:20:13;1.70;99.90
60293;DHT22;52402;52.670;6.750;2023-01-28T04:22:39;1.70;99.90
60293;DHT22;52402;52.670;6.750;2023-01-28T04:25:05;1.70;99.90
60293;DHT22;52402;52.670;6.750;2023-01-28T04:27:30;1.70;99.90
60293;DHT22;52402;52.670;6.750;2023-01-28T04:29:56;1.70;99.90
60293;DHT22;52402;52.670;6.750;2023-01-28T04:32:21;1.70;99.90
60293;DHT22;52402;52.670;6.750;2023-01-28T04:34:47;1.60;99.90
60293;DHT22;52402;52.670;6.750;2023-01-28T04:37:13;1.60;99.90
60293;DHT22;52402;52.670;6.750;2023-01-28T04:39:38;1.70;99.90
60293;DHT22;52402;52.670;6.750;2023-01-28T04:42:04;1.70;99.90
60293;DHT22;52402;52.670;6.750;2023-01-28T04:44:29;1.70;99.90
60293;DHT22;52402;52.670;6.750;2023-01-28T04:46:55;1.70;99.90
60293;DHT22;52402;52.670;6.750;2023-01-28T04:49:20;1.70;99.90
60293;DHT22;52402;52.670;6.750;2023-01-28T04:51:46;1.70;99.90
60293;DHT22;52402;52.670;6.750;2023-01-28T04:54:12;1.70;99.90
60293;DHT22;52402;52.670;6.750;2023-01-28T04:56:37;1.70;99.90
60293;DHT22;52402;52.670;6.750;2023-01-28T04:59:03;1.70;99.90
60293;DHT22;52402;52.670;6.750;2023-01-28T05:01:29;1.70;99.90
60293;DHT22;52402;52.670;6.750;2023-01-28T05:03:55;1.70;99.90
60293;DHT22;52402;52.670;6.750;2023-01-28T05:06:20;1.70;99.90
60293;DHT22;52402;52.670;6.750;2023-01-28T05:08:46;1.70;99.90
60293;DHT22;52402;52.670;6.750;2023-01-28T05:11:12;1.70;99.90
60293;DHT22;52402;52.670;6.750;2023-01-28T05:13:38;1.70;99.90
60293;DHT22;52402;52.670;6.750;2023-01-28T05:16:04;1.70;99.90
60293;DHT22;52402;52.670;6.750;2023-01-28T05:18:30;1.70;99.90
60293;DHT22;52402;52.670;6.750;2023-01-28T05:20:56;1.70;99.90
60293;DHT22;52402;52.670;6.750;2023-01-28T05:23:21;1.70;99.90
60293;DHT22;52402;52.670;6.750;2023-01-28T05:25:47;1.60;99.90
60293;DHT22;52402;52.670;6.750;2023-01-28T05:28:13;1.60;99.90
60293;DHT22;52402;52.670;6.750;2023-01-28T05:30:38;1.60;99.90
60293;DHT22;52402;52.670;6.750;2023-01-28T05:33:04;1.70;99.90
60293;DHT22;52402;52.670;6.750;2023-01-28T05:35:30;1.60;99.90
60293;DHT22;52402;52.670;6.750;2023-01-28T05:37:55;1.60;99.90
60293;DHT22;52402;52.670;6.750;2023-01-28T05:40:21;1.60;99.90
60293;DHT22;52402;52.670;6.750;2023-01-28T05:42:53;1.60;99.90
60293;DHT22;52402;52.670;6.750;2023-01-28T05:45:18;1.60;99.90
60293;DHT22;52402;52.670;6.750;2023-01-28T05:47:44;1.60;99.90
60293;DHT22;52402;52.670;6.750;2023-01-28T05:50:12;1.60;99.90
60293;DHT22;52402;52.670;6.750;2023-01-28T05:52:38;1.60;99.90
60293;DHT22;52402;52.670;6.750;2023-01-28T05:55:04;1.60;99.90
60293;DHT22;52402;52.670;6.750;2023-01-28T05:57:30;1.60;99.90
60293;DHT22;52402;52.670;6.750;2023-01-28T05:59:56;1.60;99.90
60293;DHT22;52402;52.670;6.750;2023-01-28T06:02:25;1.60;99.90
60293;DHT22;52402;52.670;6.750;2023-01-28T06:04:50;1.60;99.90
60293;DHT22;52402;52.670;6.750;2023-01-28T06:07:16;1.60;99.90
60293;DHT22;52402;52.670;6.750;2023-01-28T06:09:45;1.60;99.90
60293;DHT22;52402;52.670;6.750;2023-01-28T06:12:11;1.60;99.90
60293;DHT22;52402;52.670;6.750;2023-01-28T06:14:37;1.60;99.90
60293;DHT22;52402;52.670;6.750;2023-01-28T06:17:02;1.60;99.90
60293;DHT22;52402;52.670;6.750;2023-01-28T06:19:28;1.60;99.90
60293;DHT22;52402;52.670;6.750;2023-01-28T06:21:53;1.60;99.90
60293;DHT22;52402;52.670;6.750;2023-01-28T06:24:19;1.70;99.90
60293;DHT22;52402;52.670;6.750;2023-01-28T06:26:45;1.60;99.90
60293;DHT22;52402;52.670;6.750;2023-01-28T06:29:11;1.60;99.90
60293;DHT22;52402;52.670;6.750;2023-01-28T06:31:36;1.60;99.90
60293;DHT22;52402;52.670;6.750;2023-01-28T06:34:02;1.70;99.90
60293;DHT22;52402;52.670;6.750;2023-01-28T06:36:28;1.70;99.90
60293;DHT22;52402;52.670;6.750;2023-01-28T06:38:53;1.60;99.90
60293;DHT22;52402;52.670;6.750;2023-01-28T06:41:19;1.60;99.90
60293;DHT22;52402;52.670;6.750;2023-01-28T06:43:45;1.60;99.90
60293;DHT22;52402;52.670;6.750;2023-01-28T06:46:10;1.60;99.90
60293;DHT22;52402;52.670;6.750;2023-01-28T06:48:36;1.60;99.90
60293;DHT22;52402;52.670;6.750;2023-01-28T06:51:01;1.60;99.90
60293;DHT22;52402;52.670;6.750;2023-01-28T06:53:27;1.60;99.90
60293;DHT22;52402;52.670;6.750;2023-01-28T06:55:53;1.60;99.90
60293;DHT22;52402;52.670;6.750;2023-01-28T06:58:18;1.60;99.90
60293;DHT22;52402;52.670;6.750;2023-01-28T07:00:44;1.60;99.90
60293;DHT22;52402;52.670;6.750;2023-01-28T07:03:10;1.60;99.90
60293;DHT22;52402;52.670;6.750;2023-01-28T07:05:35;1.60;99.90
60293;DHT22;52402;52.670;6.750;2023-01-28T07:08:01;1.60;99.90
60293;DHT22;52402;52.670;6.750;2023-01-28T07:10:27;1.60;99.90
60293;DHT22;52402;52.670;6.750;2023-01-28T07:12:53;1.60;99.90
60293;DHT22;52402;52.670;6.750;2023-01-28T07:15:19;1.60;99.90
60293;DHT22;52402;52.670;6.750;2023-01-28T07:17:44;1.60;99.90
60293;DHT22;52402;52.670;6.750;2023-01-28T07:20:12;1.60;99.90
60293;DHT22;52402;52.670;6.750;2023-01-28T07:22:41;1.60;99.90
60293;DHT22;52402;52.670;6.750;2023-01-28T07:25:08;1.60;99.90
60293;DHT22;52402;52.670;6.750;2023-01-28T07:27:34;1.60;99.90
60293;DHT22;52402;52.670;6.750;2023-01-28T07:29:59;1.60;99.90
60293;DHT22;52402;52.670;6.750;2023-01-28T07:32:27;1.60;99.90
60293;DHT22;52402;52.670;6.750;2023-01-28T07:34:53;1.60;99.90
60293;DHT22;52402;52.670;6.750;2023-01-28T07:37:19;1.60;99.90
60293;DHT22;52402;52.670;6.750;2023-01-28T07:39:45;1.60;99.90
60293;DHT22;52402;52.670;6.750;2023-01-28T07:42:11;1.60;99.90
60293;DHT22;52402;52.670;6.750;2023-01-28T07:44:37;1.60;99.90
60293;DHT22;52402;52.670;6.750;2023-01-28T07:47:04;1.70;99.90
60293;DHT22;52402;52.670;6.750;2023-01-28T07:49:32;1.70;99.90
60293;DHT22;52402;52.670;6.750;2023-01-28T07:51:58;1.70;99.90
60293;DHT22;52402;52.670;6.750;2023-01-28T07:54:25;1.70;99.90
60293;DHT22;52402;52.670;6.750;2023-01-28T07:56:50;1.70;99.90
60293;DHT22;52402;52.670;6.750;2023-01-28T07:59:16;1.70;99.90
60293;DHT22;52402;52.670;6.750;2023-01-28T08:01:41;1.70;99.90
60293;DHT22;52402;52.670;6.750;2023-01-28T08:04:07;1.70;99.90
60293;DHT22;52402;52.670;6.750;2023-01-28T08:06:32;1.70;99.90
60293;DHT22;52402;52.670;6.750;2023-01-28T08:09:03;1.70;99.90
60293;DHT22;52402;52.670;6.750;2023-01-28T08:11:31;1.70;99.90
60293;DHT22;52402;52.670;6.750;2023-01-28T08:13:57;1.70;99.90
60293;DHT22;52402;52.670;6.750;2023-01-28T08:16:22;1.80;99.90
60293;DHT22;52402;52.670;6.750;2023-01-28T08:18:48;1.80;99.90
60293;DHT22;52402;52.670;6.750;2023-01-28T08:21:13;1.80;99.90
60293;DHT22;52402;52.670;6.750;2023-01-28T08:23:40;1.70;99.90
60293;DHT22;52402;52.670;6.750;2023-01-28T08:26:05;1.70;99.90
60293;DHT22;52402;52.670;6.750;2023-01-28T08:28:31;1.70;99.90
60293;DHT22;52402;52.670;6.750;2023-01-28T08:30:59;1.70;99.90
60293;DHT22;52402;52.670;6.750;2023-01-28T08:33:26;1.70;99.90
60293;DHT22;52402;52.670;6.750;2023-01-28T08:35:52;1.60;99.90
60293;DHT22;52402;52.670;6.750;2023-01-28T08:38:17;1.60;99.90
60293;DHT22;52402;52.670;6.750;2023-01-28T08:40:45;1.60;99.90
60293;DHT22;52402;52.670;6.750;2023-01-28T08:43:11;1.50;99.90
60293;DHT22;52402;52.670;6.750;2023-01-28T08:45:38;1.50;99.90
60293;DHT22;52402;52.670;6.750;2023-01-28T08:48:06;1.50;99.90
60293;DHT22;52402;52.670;6.750;2023-01-28T08:50:35;1.50;99.90
60293;DHT22;52402;52.670;6.750;2023-01-28T08:53:03;1.40;99.90
60293;DHT22;52402;52.670;6.750;2023-01-28T08:55:30;1.50;99.90
60293;DHT22;52402;52.670;6.750;2023-01-28T08:57:56;1.60;99.90
60293;DHT22;52402;52.670;6.750;2023-01-28T09:00:22;1.60;99.90
60293;DHT22;52402;52.670;6.750;2023-01-28T09:02:51;1.60;99.90
60293;DHT22;52402;52.670;6.750;2023-01-28T09:05:17;1.60;99.90
60293;DHT22;52402;52.670;6.750;2023-01-28T09:07:45;1.60;99.90
60293;DHT22;52402;52.670;6.750;2023-01-28T09:10:11;1.70;99.90
60293;DHT22;52402;52.670;6.750;2023-01-28T09:12:37;1.80;99.90
60293;DHT22;52402;52.670;6.750;2023-01-28T09:15:03;1.90;99.90
60293;DHT22;52402;52.670;6.750;2023-01-28T09:17:29;1.90;99.90
60293;DHT22;52402;52.670;6.750;2023-01-28T09:19:55;2.00;99.90
60293;DHT22;52402;52.670;6.750;2023-01-28T09:22:21;2.10;99.90
60293;DHT22;52402;52.670;6.750;2023-01-28T09:24:46;2.10;99.90
60293;DHT22;52402;52.670;6.750;2023-01-28T09:27:12;2.10;99.90
60293;DHT22;52402;52.670;6.750;2023-01-28T09:29:37;2.10;99.90
60293;DHT22;52402;52.670;6.750;2023-01-28T09:32:04;2.20;99.90
60293;DHT22;52402;52.670;6.750;2023-01-28T09:34:31;2.20;99.90
60293;DHT22;52402;52.670;6.750;2023-01-28T09:36:57;2.20;99.90
60293;DHT22;52402;52.670;6.750;2023-01-28T09:39:22;2.30;99.90
60293;DHT22;52402;52.670;6.750;2023-01-28T09:45:00;2.30;99.90
60293;DHT22;52402;52.670;6.750;2023-01-28T09:47:37;2.40;99.90
60293;DHT22;52402;52.670;6.750;2023-01-28T09:50:13;2.40;99.90
60293;DHT22;52402;52.670;6.750;2023-01-28T09:52:40;2.40;99.90
60293;DHT22;52402;52.670;6.750;2023-01-28T09:55:22;2.50;99.90
60293;DHT22;52402;52.670;6.750;2023-01-28T09:57:52;2.50;99.90
60293;DHT22;52402;52.670;6.750;2023-01-28T10:00:23;2.60;99.90
60293;DHT22;52402;52.670;6.750;2023-01-28T10:10:59;3.10;99.90
60293;DHT22;52402;52.670;6.750;2023-01-28T10:19:25;3.10;99.90
60293;DHT22;52402;52.670;6.750;2023-01-28T10:22:06;3.10;99.90
60293;DHT22;52402;52.670;6.750;2023-01-28T10:24:37;3.20;99.90
60293;DHT22;52402;52.670;6.750;2023-01-28T10:27:15;3.20;99.90
60293;DHT22;52402;52.670;6.750;2023-01-28T10:29:41;3.20;99.90
60293;DHT22;52402;52.670;6.750;2023-01-28T10:32:33;3.20;99.90
60293;DHT22;52402;52.670;6.750;2023-01-28T10:35:00;3.30;99.90
60293;DHT22;52402;52.670;6.750;2023-01-28T10:37:28;3.30;99.90
60293;DHT22;52402;52.670;6.750;2023-01-28T10:39:57;3.30;99.90
60293;DHT22;52402;52.670;6.750;2023-01-28T10:42:33;3.40;99.90
60293;DHT22;52402;52.670;6.750;2023-01-28T10:45:17;3.50;99.90
60293;DHT22;52402;52.670;6.750;2023-01-28T10:47:55;3.60;99.90
60293;DHT22;52402;52.670;6.750;2023-01-28T10:50:28;3.60;99.90
60293;DHT22;52402;52.670;6.750;2023-01-28T10:52:56;3.60;99.90
60293;DHT22;52402;52.670;6.750;2023-01-28T10:55:24;3.70;99.90
60293;DHT22;52402;52.670;6.750;2023-01-28T10:57:52;3.80;99.90
60293;DHT22;52402;52.670;6.750;2023-01-28T11:00:27;3.80;99.90
60293;DHT22;52402;52.670;6.750;2023-01-28T11:02:55;3.80;99.90
60293;DHT22;52402;52.670;6.750;2023-01-28T11:05:23;3.80;99.90
60293;DHT22;52402;52.670;6.750;2023-01-28T11:08:14;3.90;99.90
60293;DHT22;52402;52.670;6.750;2023-01-28T11:10:41;4.00;99.90
60293;DHT22;52402;52.670;6.750;2023-01-28T11:13:22;4.00;99.90
60293;DHT22;52402;52.670;6.750;2023-01-28T11:15:50;4.00;99.90
60293;DHT22;52402;52.670;6.750;2023-01-28T11:18:21;4.00;99.90
60293;DHT22;52402;52.670;6.750;2023-01-28T11:21:00;4.00;99.90
60293;DHT22;52402;52.670;6.750;2023-01-28T11:23:30;4.10;99.90
60293;DHT22;52402;52.670;6.750;2023-01-28T11:26:06;4.20;99.90
60293;DHT22;52402;52.670;6.750;2023-01-28T11:28:34;4.20;99.90
60293;DHT22;52402;52.670;6.750;2023-01-28T11:31:02;4.30;99.90
60293;DHT22;52402;52.670;6.750;2023-01-28T11:33:53;4.30;99.90
60293;DHT22;52402;52.670;6.750;2023-01-28T11:36:20;4.40;99.90
60293;DHT22;52402;52.670;6.750;2023-01-28T11:39:17;4.50;99.90
60293;DHT22;52402;52.670;6.750;2023-01-28T11:41:45;4.60;99.90
60293;DHT22;52402;52.670;6.750;2023-01-28T11:44:24;4.70;99.90
60293;DHT22;52402;52.670;6.750;2023-01-28T11:55:39;4.60;99.90
60293;DHT22;52402;52.670;6.750;2023-01-28T12:01:02;4.60;99.90
60293;DHT22;52402;52.670;6.750;2023-01-28T12:09:19;4.40;99.90
60293;DHT22;52402;52.670;6.750;2023-01-28T12:20:17;4.60;99.90
60293;DHT22;52402;52.670;6.750;2023-01-28T12:22:55;4.80;99.90
60293;DHT22;52402;52.670;6.750;2023-01-28T12:37:00;5.70;99.90
60293;DHT22;52402;52.670;6.750;2023-01-28T12:39:56;5.80;99.90
60293;DHT22;52402;52.670;6.750;2023-01-28T12:42:41;5.80;99.90
60293;DHT22;52402;52.670;6.750;2023-01-28T12:45:17;5.80;99.90
60293;DHT22;52402;52.670;6.750;2023-01-28T12:47:50;5.70;99.90
60293;DHT22;52402;52.670;6.750;2023-01-28T12:50:28;5.70;99.90
60293;DHT22;52402;52.670;6.750;2023-01-28T12:53:12;5.60;99.90
60293;DHT22;52402;52.670;6.750;2023-01-28T12:55:45;5.60;99.90
60293;DHT22;52402;52.670;6.750;2023-01-28T12:58:18;5.50;99.90
60293;DHT22;52402;52.670;6.750;2023-01-28T13:00:50;5.50;99.90
60293;DHT22;52402;52.670;6.750;2023-01-28T13:05:50;5.50;99.90
60293;DHT22;52402;52.670;6.750;2023-01-28T13:08:24;5.50;99.90
60293;DHT22;52402;52.670;6.750;2023-01-28T13:10:50;5.50;99.90
60293;DHT22;52402;52.670;6.750;2023-01-28T13:15:54;5.30;99.90
60293;DHT22;52402;52.670;6.750;2023-01-28T13:21:13;5.00;99.90
60293;DHT22;52402;52.670;6.750;2023-01-28T13:23:45;4.90;99.90
60293;DHT22;52402;52.670;6.750;2023-01-28T13:28:47;4.90;99.90
60293;DHT22;52402;52.670;6.750;2023-01-28T13:31:14;4.80;99.90
60293;DHT22;52402;52.670;6.750;2023-01-28T13:36:42;4.80;99.90
60293;DHT22;52402;52.670;6.750;2023-01-28T13:39:18;4.70;99.90
60293;DHT22;52402;52.670;6.750;2023-01-28T13:41:54;4.70;99.90
60293;DHT22;52402;52.670;6.750;2023-01-28T13:44:30;4.70;99.90
60293;DHT22;52402;52.670;6.750;2023-01-28T13:47:19;4.70;99.90
60293;DHT22;52402;52.670;6.750;2023-01-28T13:49:50;4.60;99.90
60293;DHT22;52402;52.670;6.750;2023-01-28T13:52:25;4.60;99.90
60293;DHT22;52402;52.670;6.750;2023-01-28T13:54:55;4.70;99.90
60293;DHT22;52402;52.670;6.750;2023-01-28T14:00:11;4.60;99.90
60293;DHT22;52402;52.670;6.750;2023-01-28T14:05:47;4.50;99.90
60293;DHT22;52402;52.670;6.750;2023-01-28T14:11:25;4.50;99.90
60293;DHT22;52402;52.670;6.750;2023-01-28T14:16:57;4.60;99.90
60293;DHT22;52402;52.670;6.750;2023-01-28T14:19:31;4.60;99.90
60293;DHT22;52402;52.670;6.750;2023-01-28T14:21:57;4.60;99.90
60293;DHT22;52402;52.670;6.750;2023-01-28T14:24:24;4.50;99.90
60293;DHT22;52402;52.670;6.750;2023-01-28T14:26:56;4.50;99.90
60293;DHT22;52402;52.670;6.750;2023-01-28T14:32:15;4.50;99.90
60293;DHT22;52402;52.670;6.750;2023-01-28T14:34:43;4.50;99.90
60293;DHT22;52402;52.670;6.750;2023-01-28T14:37:19;4.50;99.90
60293;DHT22;52402;52.670;6.750;2023-01-28T14:39:50;4.50;99.90
60293;DHT22;52402;52.670;6.750;2023-01-28T14:42:20;4.60;99.90
60293;DHT22;52402;52.670;6.750;2023-01-28T14:45:04;4.60;99.90
60293;DHT22;52402;52.670;6.750;2023-01-28T14:47:37;4.60;99.90
60293;DHT22;52402;52.670;6.750;2023-01-28T14:58:18;4.70;99.90
60293;DHT22;52402;52.670;6.750;2023-01-28T15:00:56;4.70;99.90
60293;DHT22;52402;52.670;6.750;2023-01-28T15:03:24;4.70;99.90
60293;DHT22;52402;52.670;6.750;2023-01-28T15:06:14;4.70;99.90
60293;DHT22;52402;52.670;6.750;2023-01-28T15:08:40;4.70;99.90
60293;DHT22;52402;52.670;6.750;2023-01-28T15:11:11;4.60;99.90
60293;DHT22;52402;52.670;6.750;2023-01-28T15:13:43;4.60;99.90
60293;DHT22;52402;52.670;6.750;2023-01-28T15:16:19;4.60;99.90
60293;DHT22;52402;52.670;6.750;2023-01-28T15:18:46;4.60;99.90
60293;DHT22;52402;52.670;6.750;2023-01-28T15:21:12;4.60;99.90
60293;DHT22;52402;52.670;6.750;2023-01-28T15:23:42;4.50;99.90
60293;DHT22;52402;52.670;6.750;2023-01-28T15:26:17;4.50;99.90
60293;DHT22;52402;52.670;6.750;2023-01-28T15:28:44;4.50;99.90
60293;DHT22;52402;52.670;6.750;2023-01-28T15:34:03;4.50;99.90
60293;DHT22;52402;52.670;6.750;2023-01-28T15:36:36;4.40;99.90
60293;DHT22;52402;52.670;6.750;2023-01-28T15:39:02;4.40;99.90
60293;DHT22;52402;52.670;6.750;2023-01-28T15:41:34;4.40;99.90
60293;DHT22;52402;52.670;6.750;2023-01-28T15:44:00;4.40;99.90
60293;DHT22;52402;52.670;6.750;2023-01-28T15:46:27;4.40;99.90
60293;DHT22;52402;52.670;6.750;2023-01-28T15:48:58;4.30;99.90
60293;DHT22;52402;52.670;6.750;2023-01-28T15:51:29;4.40;99.90
60293;DHT22;52402;52.670;6.750;2023-01-28T15:54:03;4.30;99.90
60293;DHT22;52402;52.670;6.750;2023-01-28T15:56:30;4.30;99.90
60293;DHT22;52402;52.670;6.750;2023-01-28T15:59:16;4.30;99.90
60293;DHT22;52402;52.670;6.750;2023-01-28T16:01:45;4.30;99.90
60293;DHT22;52402;52.670;6.750;2023-01-28T16:04:25;4.30;99.90
60293;DHT22;52402;52.670;6.750;2023-01-28T16:06:52;4.30;99.90
60293;DHT22;52402;52.670;6.750;2023-01-28T16:09:30;4.20;99.90
60293;DHT22;52402;52.670;6.750;2023-01-28T16:12:10;4.30;99.90
60293;DHT22;52402;52.670;6.750;2023-01-28T16:14:48;4.20;99.90
60293;DHT22;52402;52.670;6.750;2023-01-28T16:17:17;4.20;99.90
60293;DHT22;52402;52.670;6.750;2023-01-28T16:19:47;4.20;99.90
60293;DHT22;52402;52.670;6.750;2023-01-28T16:22:33;4.10;99.90
60293;DHT22;52402;52.670;6.750;2023-01-28T16:24:59;4.10;99.90
60293;DHT22;52402;52.670;6.750;2023-01-28T16:27:27;4.10;99.90
60293;DHT22;52402;52.670;6.750;2023-01-28T16:29:53;4.10;99.90
60293;DHT22;52402;52.670;6.750;2023-01-28T16:32:36;4.10;99.90
60293;DHT22;52402;52.670;6.750;2023-01-28T16:35:10;4.00;99.90
60293;DHT22;52402;52.670;6.750;2023-01-28T16:37:37;4.00;99.90
60293;DHT22;52402;52.670;6.750;2023-01-28T16:40:03;4.00;99.90
60293;DHT22;52402;52.670;6.750;2023-01-28T16:42:30;4.00;99.90
60293;DHT22;52402;52.670;6.750;2023-01-28T16:44:56;4.00;99.90
60293;DHT22;52402;52.670;6.750;2023-01-28T16:47:22;4.00;99.90
60293;DHT22;52402;52.670;6.750;2023-01-28T16:49:48;3.90;99.90
60293;DHT22;52402;52.670;6.750;2023-01-28T16:52:13;3.90;99.90
60293;DHT22;52402;52.670;6.750;2023-01-28T16:54:41;3.90;99.90
60293;DHT22;52402;52.670;6.750;2023-01-28T16:57:09;3.90;99.90
60293;DHT22;52402;52.670;6.750;2023-01-28T16:59:38;3.90;99.90
60293;DHT22;52402;52.670;6.750;2023-01-28T17:02:03;3.80;99.90
60293;DHT22;52402;52.670;6.750;2023-01-28T17:04:29;3.80;99.90
60293;DHT22;52402;52.670;6.750;2023-01-28T17:06:54;3.80;99.90
60293;DHT22;52402;52.670;6.750;2023-01-28T17:09:20;3.80;99.90
60293;DHT22;52402;52.670;6.750;2023-01-28T17:11:47;3.80;99.90
60293;DHT22;52402;52.670;6.750;2023-01-28T17:14:13;3.80;99.90
60293;DHT22;52402;52.670;6.750;2023-01-28T17:16:38;3.70;99.90
60293;DHT22;52402;52.670;6.750;2023-01-28T17:19:04;3.70;99.90
60293;DHT22;52402;52.670;6.750;2023-01-28T17:21:29;3.70;99.90
60293;DHT22;52402;52.670;6.750;2023-01-28T17:23:55;3.70;99.90
60293;DHT22;52402;52.670;6.750;2023-01-28T17:26:21;3.70;99.90
60293;DHT22;52402;52.670;6.750;2023-01-28T17:28:55;3.70;99.90
60293;DHT22;52402;52.670;6.750;2023-01-28T17:31:21;3.70;99.90
60293;DHT22;52402;52.670;6.750;2023-01-28T17:33:51;3.70;99.90
60293;DHT22;52402;52.670;6.750;2023-01-28T17:36:17;3.70;99.90
60293;DHT22;52402;52.670;6.750;2023-01-28T17:38:45;3.70;99.90
60293;DHT22;52402;52.670;6.750;2023-01-28T17:41:12;3.70;99.90
60293;DHT22;52402;52.670;6.750;2023-01-28T17:43:38;3.70;99.90
60293;DHT22;52402;52.670;6.750;2023-01-28T17:46:14;3.70;99.90
60293;DHT22;52402;52.670;6.750;2023-01-28T17:48:39;3.70;99.90
60293;DHT22;52402;52.670;6.750;2023-01-28T17:51:05;3.70;99.90
60293;DHT22;52402;52.670;6.750;2023-01-28T17:53:31;3.70;99.90
60293;DHT22;52402;52.670;6.750;2023-01-28T17:55:57;3.70;99.90
60293;DHT22;52402;52.670;6.750;2023-01-28T17:58:23;3.70;99.90
60293;DHT22;52402;52.670;6.750;2023-01-28T18:00:48;3.70;99.90